createdAt,value
2023-05-03T00:01:31.183Z,12.67
2023-05-03T00:03:58.197Z,13.08
2023-05-03T00:06:25.767Z,13.30
2023-05-03T00:08:53.046Z,13.12
2023-05-03T00:11:20.134Z,13.07
2023-05-03T00:13:47.182Z,13.25
2023-05-03T00:16:14.505Z,13.28
2023-05-03T00:18:41.588Z,13.35
2023-05-03T00:21:08.610Z,13.29
2023-05-03T00:23:35.682Z,13.09
2023-05-03T00:26:02.842Z,13.02
2023-05-03T00:28:29.855Z,13.06
2023-05-03T00:30:56.933Z,13.02
2023-05-03T00:33:23.951Z,13.20
2023-05-03T00:35:51.032Z,13.24
2023-05-03T00:38:18.135Z,12.60
2023-05-03T00:40:46.338Z,12.74
2023-05-03T00:43:13.884Z,12.83
2023-05-03T00:45:41.341Z,12.92
2023-05-03T00:48:08.616Z,12.87
2023-05-03T00:50:37.207Z,12.72
2023-05-03T00:53:04.582Z,12.60
2023-05-03T00:55:32.237Z,12.43
2023-05-03T00:57:59.391Z,12.25
2023-05-03T01:00:26.542Z,12.10
2023-05-03T01:02:54.527Z,11.85
2023-05-03T01:05:23.083Z,11.81
2023-05-03T01:08:09.430Z,11.76
2023-05-03T01:10:54.746Z,12.05
2023-05-03T01:13:39.723Z,11.96
2023-05-03T01:16:21.431Z,12.24
2023-05-03T01:18:51.167Z,12.42
2023-05-03T01:21:19.413Z,12.37
2023-05-03T01:23:52.596Z,12.21
2023-05-03T01:26:21.990Z,12.23
2023-05-03T01:28:49.192Z,12.30
2023-05-03T01:31:26.755Z,12.55
2023-05-03T01:34:18.471Z,12.45
2023-05-03T01:36:46.201Z,12.42
2023-05-03T01:39:21.351Z,12.41
2023-05-03T01:41:51.935Z,12.39
2023-05-03T01:44:21.805Z,12.26
2023-05-03T01:46:49.868Z,12.40
2023-05-03T01:49:16.976Z,12.34
2023-05-03T01:51:43.966Z,12.43
2023-05-03T01:54:11.547Z,12.38
2023-05-03T01:56:38.622Z,12.57
2023-05-03T01:59:05.896Z,12.40
2023-05-03T02:01:33.676Z,11.97
2023-05-03T02:04:01.045Z,12.15
2023-05-03T02:06:28.263Z,12.08
2023-05-03T02:08:59.868Z,12.16
2023-05-03T02:11:26.901Z,12.10
2023-05-03T02:13:53.969Z,12.13
2023-05-03T02:16:21.616Z,12.44
2023-05-03T02:18:48.776Z,12.62
2023-05-03T02:21:16.365Z,12.33
2023-05-03T02:23:43.445Z,12.58
2023-05-03T02:26:10.645Z,12.59
2023-05-03T02:28:38.812Z,12.54
2023-05-03T02:31:06.613Z,12.43
2023-05-03T02:33:33.891Z,12.49
2023-05-03T02:36:01.034Z,12.32
2023-05-03T02:38:28.182Z,12.15
2023-05-03T02:40:55.261Z,12.08
2023-05-03T02:43:23.198Z,12.33
2023-05-03T02:45:50.284Z,12.53
2023-05-03T02:48:17.992Z,12.68
2023-05-03T02:50:45.091Z,12.75
2023-05-03T02:53:12.632Z,12.42
2023-05-03T02:55:40.647Z,12.59
2023-05-03T02:58:07.810Z,12.68
2023-05-03T03:00:35.427Z,12.72
2023-05-03T03:03:02.844Z,12.56
2023-05-03T03:05:30.252Z,12.71
2023-05-03T03:07:57.232Z,12.52
2023-05-03T03:10:24.585Z,12.53
2023-05-03T03:12:51.612Z,12.66
2023-05-03T03:15:28.107Z,12.64
2023-05-03T03:17:58.086Z,12.94
2023-05-03T03:20:26.059Z,13.00
2023-05-03T03:22:54.660Z,12.76
2023-05-03T03:25:21.968Z,12.99
2023-05-03T03:27:49.745Z,13.21
2023-05-03T03:30:17.192Z,13.34
2023-05-03T03:32:56.984Z,13.33
2023-05-03T03:35:31.233Z,13.34
2023-05-03T03:37:58.671Z,13.32
2023-05-03T03:40:26.055Z,13.33
2023-05-03T03:42:55.427Z,13.78
2023-05-03T03:45:22.629Z,13.95
2023-05-03T03:47:51.428Z,14.15
2023-05-03T03:50:21.474Z,14.22
2023-05-03T03:52:48.525Z,14.07
2023-05-03T03:55:16.072Z,13.65
2023-05-03T03:57:46.019Z,14.02
2023-05-03T04:00:14.881Z,14.07
2023-05-03T04:02:49.171Z,14.19
2023-05-03T04:05:18.618Z,13.99
2023-05-03T04:07:46.610Z,13.80
2023-05-03T04:10:15.617Z,13.99
2023-05-03T04:12:43.470Z,14.52
2023-05-03T04:15:13.439Z,14.92
2023-05-03T04:17:41.379Z,14.65
2023-05-03T04:20:11.642Z,15.07
2023-05-03T04:22:41.324Z,14.89
2023-05-03T04:25:14.346Z,14.53
2023-05-03T04:27:45.282Z,14.71
2023-05-03T04:30:15.272Z,14.39
2023-05-03T04:32:44.602Z,13.72
2023-05-03T04:35:12.983Z,13.73
2023-05-03T04:37:44.438Z,13.87
2023-05-03T04:40:16.516Z,14.04
2023-05-03T04:42:48.472Z,14.22
2023-05-03T04:45:15.993Z,14.33
2023-05-03T04:47:43.332Z,13.98
2023-05-03T04:50:11.383Z,13.97
2023-05-03T04:52:41.766Z,13.84
2023-05-03T04:55:12.567Z,14.00
2023-05-03T04:57:40.427Z,14.15
2023-05-03T05:00:13.126Z,14.41
2023-05-03T05:02:45.472Z,14.53
2023-05-03T05:05:12.924Z,14.08
2023-05-03T05:07:39.991Z,13.90
2023-05-03T05:10:10.315Z,13.99
2023-05-03T05:12:38.102Z,13.72
2023-05-03T05:15:07.142Z,13.81
2023-05-03T05:17:35.117Z,13.63
2023-05-03T05:20:07.346Z,13.95
2023-05-03T05:22:34.997Z,13.88
2023-05-03T05:25:02.256Z,14.36
2023-05-03T05:27:30.861Z,13.87
2023-05-03T05:29:59.462Z,13.93
2023-05-03T05:32:27.216Z,14.08
2023-05-03T05:34:57.783Z,13.78
2023-05-03T05:37:27.782Z,14.05
2023-05-03T05:39:58.693Z,14.21
2023-05-03T05:42:28.797Z,14.19
2023-05-03T05:44:57.475Z,13.92
2023-05-03T05:47:25.076Z,14.30
2023-05-03T05:49:53.651Z,14.45
2023-05-03T05:52:20.686Z,14.16
2023-05-03T05:54:47.781Z,13.99
2023-05-03T05:57:14.932Z,14.13
2023-05-03T05:59:42.404Z,13.98
2023-05-03T06:02:16.906Z,13.67
2023-05-03T06:04:46.920Z,13.72
2023-05-03T06:07:15.117Z,13.96
2023-05-03T06:09:42.913Z,13.86
2023-05-03T06:12:11.209Z,13.78
2023-05-03T06:14:51.683Z,13.92
2023-05-03T06:17:29.389Z,14.23
2023-05-03T06:19:57.982Z,14.45
2023-05-03T06:22:25.570Z,14.39
2023-05-03T06:24:55.566Z,14.61
2023-05-03T06:27:22.704Z,14.56
2023-05-03T06:29:51.563Z,14.66
2023-05-03T06:32:19.494Z,14.55
2023-05-03T06:34:46.738Z,14.38
2023-05-03T06:37:14.274Z,14.50
2023-05-03T06:39:41.726Z,14.62
2023-05-03T06:42:08.956Z,14.49
2023-05-03T06:44:39.120Z,14.54
2023-05-03T06:47:06.192Z,14.67
2023-05-03T06:49:33.367Z,14.72
2023-05-03T06:52:00.479Z,14.94
2023-05-03T06:54:27.667Z,15.68
2023-05-03T06:56:54.678Z,15.07
2023-05-03T06:59:21.702Z,15.57
2023-05-03T07:01:48.868Z,15.33
2023-05-03T07:04:16.190Z,15.56
2023-05-03T07:06:55.452Z,15.52
2023-05-03T07:09:35.446Z,15.31
2023-05-03T07:12:09.267Z,15.07
2023-05-03T07:14:36.468Z,15.48
2023-05-03T07:17:03.501Z,15.18
2023-05-03T07:19:30.674Z,15.09
2023-05-03T07:21:57.697Z,15.31
2023-05-03T07:24:27.340Z,15.44
2023-05-03T07:26:54.640Z,15.65
2023-05-03T07:29:22.043Z,15.61
2023-05-03T07:31:50.829Z,15.91
2023-05-03T07:34:19.169Z,16.08
2023-05-03T07:36:46.116Z,15.88
2023-05-03T07:39:13.127Z,16.22
2023-05-03T07:41:40.205Z,16.27
2023-05-03T07:44:07.904Z,16.03
2023-05-03T07:46:35.519Z,16.27
2023-05-03T07:49:04.749Z,16.16
2023-05-03T07:51:39.220Z,15.93
2023-05-03T07:54:06.460Z,16.16
2023-05-03T07:56:46.626Z,16.38
2023-05-03T07:59:20.371Z,16.46
2023-05-03T08:01:47.362Z,16.10
2023-05-03T08:04:14.443Z,16.11
2023-05-03T08:06:42.844Z,15.92
2023-05-03T08:09:09.876Z,16.14
2023-05-03T08:11:37.023Z,16.76
2023-05-03T08:14:04.085Z,17.11
2023-05-03T08:16:31.181Z,16.70
2023-05-03T08:18:58.305Z,15.95
2023-05-03T08:21:26.302Z,15.61
2023-05-03T08:23:53.431Z,15.94
2023-05-03T08:26:22.364Z,15.93
2023-05-03T08:28:49.818Z,15.65
2023-05-03T08:31:17.732Z,15.51
2023-05-03T08:33:44.798Z,14.90
2023-05-03T08:36:11.833Z,15.24
2023-05-03T08:38:41.522Z,14.96
2023-05-03T08:41:30.819Z,15.29
2023-05-03T08:43:59.607Z,15.39
2023-05-03T08:46:28.638Z,15.62
2023-05-03T08:48:56.229Z,16.06
2023-05-03T08:51:25.135Z,15.97
2023-05-03T08:53:52.490Z,16.20
2023-05-03T08:56:40.111Z,17.13
2023-05-03T08:59:10.391Z,16.57
2023-05-03T09:01:41.407Z,16.68
2023-05-03T09:04:10.296Z,16.92
2023-05-03T09:06:38.697Z,16.93
2023-05-03T09:09:09.903Z,17.08
2023-05-03T09:11:38.914Z,17.30
2023-05-03T09:14:17.494Z,17.32
2023-05-03T09:16:46.807Z,17.03
2023-05-03T09:19:16.598Z,17.55
2023-05-03T09:21:45.556Z,17.29
2023-05-03T09:24:21.127Z,17.17
2023-05-03T09:26:50.660Z,17.65
2023-05-03T09:29:32.254Z,17.54
2023-05-03T09:32:05.748Z,17.49
2023-05-03T09:34:34.198Z,17.48
2023-05-03T09:37:01.534Z,17.09
2023-05-03T09:39:28.636Z,17.31
2023-05-03T09:41:56.724Z,16.93
2023-05-03T09:44:43.148Z,17.16
2023-05-03T09:47:11.182Z,17.08
2023-05-03T09:49:38.841Z,16.75
2023-05-03T09:52:07.372Z,16.96
2023-05-03T09:54:38.341Z,17.22
2023-05-03T09:57:07.600Z,17.32
2023-05-03T09:59:39.829Z,17.82
2023-05-03T10:02:08.468Z,17.58
2023-05-03T10:04:52.093Z,17.76
2023-05-03T10:07:22.586Z,18.34
2023-05-03T10:09:49.708Z,18.23
2023-05-03T10:12:18.093Z,18.06
2023-05-03T10:14:47.556Z,18.56
2023-05-03T10:17:42.914Z,18.66
2023-05-03T10:20:23.182Z,17.72
2023-05-03T10:23:05.560Z,17.43
2023-05-03T10:25:37.184Z,17.41
2023-05-03T10:28:06.124Z,17.18
2023-05-03T10:30:37.024Z,17.13
2023-05-03T10:33:10.158Z,17.33
2023-05-03T10:35:40.968Z,17.98
2023-05-03T10:38:21.048Z,17.81
2023-05-03T10:40:48.592Z,17.46
2023-05-03T10:43:33.439Z,17.19
2023-05-03T10:46:05.108Z,17.43
2023-05-03T10:48:33.657Z,17.77
2023-05-03T10:51:37.320Z,18.04
2023-05-03T10:54:04.923Z,18.11
2023-05-03T10:56:32.078Z,18.79
2023-05-03T10:58:59.273Z,18.56
2023-05-03T11:01:28.232Z,19.06
2023-05-03T11:04:01.070Z,19.18
2023-05-03T11:06:41.385Z,18.57
2023-05-03T11:09:12.159Z,18.33
2023-05-03T11:11:41.603Z,18.14
2023-05-03T11:14:10.187Z,18.42
2023-05-03T11:16:41.252Z,18.36
2023-05-03T11:19:08.552Z,18.74
2023-05-03T11:21:36.555Z,18.51
2023-05-03T11:24:03.682Z,18.36
2023-05-03T11:26:36.231Z,17.52
2023-05-03T11:29:03.786Z,17.16
2023-05-03T11:31:31.990Z,16.57
2023-05-03T11:33:59.427Z,16.56
2023-05-03T11:36:28.086Z,16.94
2023-05-03T11:38:55.219Z,16.55
2023-05-03T11:41:22.371Z,16.21
2023-05-03T11:44:00.470Z,16.27
2023-05-03T11:46:35.788Z,16.67
2023-05-03T11:49:03.570Z,16.96
2023-05-03T11:51:31.507Z,17.27
2023-05-03T11:54:13.036Z,17.13
2023-05-03T11:56:47.920Z,17.71
2023-05-03T11:59:15.017Z,18.13
2023-05-03T12:01:43.211Z,18.45
2023-05-03T12:04:13.030Z,18.52
2023-05-03T12:06:42.438Z,18.70
2023-05-03T12:09:15.649Z,18.60
2023-05-03T12:11:44.914Z,18.33
2023-05-03T12:14:12.839Z,18.28
2023-05-03T12:16:51.816Z,18.79
2023-05-03T12:19:28.054Z,18.46
2023-05-03T12:22:17.838Z,17.60
2023-05-03T12:24:49.321Z,16.58
2023-05-03T12:27:19.311Z,17.50
2023-05-03T12:29:47.557Z,18.15
2023-05-03T12:32:15.211Z,17.85
2023-05-03T12:34:43.349Z,18.77
2023-05-03T12:37:16.752Z,18.97
2023-05-03T12:39:47.367Z,18.32
2023-05-03T12:42:22.015Z,18.73
2023-05-03T12:44:50.873Z,17.50
2023-05-03T12:47:26.954Z,18.30
2023-05-03T12:49:59.614Z,18.40
2023-05-03T12:54:57.196Z,18.25
2023-05-03T12:57:24.762Z,17.67
2023-05-03T13:00:02.248Z,16.91
2023-05-03T13:05:01.672Z,16.33
2023-05-03T13:07:31.047Z,16.01
2023-05-03T13:12:31.125Z,15.97
2023-05-03T13:14:58.277Z,16.06
2023-05-03T13:17:25.429Z,16.19
2023-05-03T13:19:53.328Z,16.42
2023-05-03T13:22:20.502Z,16.95
2023-05-03T13:24:48.195Z,16.73
2023-05-03T13:27:16.746Z,16.19
2023-05-03T13:29:46.152Z,16.58
2023-05-03T13:32:14.626Z,16.24
2023-05-03T13:34:41.603Z,16.05
2023-05-03T13:37:08.564Z,15.73
2023-05-03T13:39:35.609Z,15.89
2023-05-03T13:42:03.689Z,16.41
2023-05-03T13:44:30.794Z,16.04
2023-05-03T13:46:57.826Z,16.33
2023-05-03T13:49:25.693Z,16.66
2023-05-03T13:51:52.886Z,16.07
2023-05-03T13:54:19.996Z,16.75
2023-05-03T13:56:48.415Z,15.87
2023-05-03T13:59:16.484Z,15.44
2023-05-03T14:01:43.740Z,15.49
2023-05-03T14:04:11.105Z,15.67
2023-05-03T14:06:40.241Z,15.94
2023-05-03T14:09:08.162Z,15.78
2023-05-03T14:11:35.598Z,15.72
2023-05-03T14:14:03.368Z,15.87
2023-05-03T14:16:40.838Z,15.68
2023-05-03T14:19:10.801Z,15.85
2023-05-03T14:21:38.529Z,15.95
2023-05-03T14:24:06.842Z,16.27
2023-05-03T14:26:37.206Z,16.12
2023-05-03T14:29:05.899Z,16.40
2023-05-03T14:31:34.395Z,15.66
2023-05-03T14:34:01.527Z,15.59
2023-05-03T14:36:36.127Z,15.26
2023-05-03T14:39:04.452Z,15.85
2023-05-03T14:41:33.543Z,15.63
2023-05-03T14:44:02.232Z,15.11
2023-05-03T14:46:29.397Z,15.02
2023-05-03T14:48:56.384Z,14.84
2023-05-03T14:51:24.095Z,14.70
2023-05-03T14:53:51.498Z,14.70
2023-05-03T14:56:18.559Z,14.86
2023-05-03T14:58:45.627Z,14.76
2023-05-03T15:01:22.332Z,14.59
2023-05-03T15:03:50.018Z,14.51
2023-05-03T15:06:24.566Z,14.36
2023-05-03T15:08:52.469Z,14.95
2023-05-03T15:11:19.697Z,14.13
2023-05-03T15:13:47.982Z,14.39
2023-05-03T15:16:15.180Z,14.44
2023-05-03T15:18:44.076Z,14.40
2023-05-03T15:21:12.833Z,14.45
2023-05-03T15:23:39.899Z,14.32
2023-05-03T15:26:07.223Z,14.70
2023-05-03T15:28:34.224Z,14.03
2023-05-03T15:31:01.996Z,14.06
2023-05-03T15:33:29.121Z,13.97
2023-05-03T15:35:56.584Z,13.85
2023-05-03T15:38:23.720Z,13.80
2023-05-03T15:40:50.814Z,13.74
2023-05-03T15:43:18.017Z,14.05
2023-05-03T15:45:45.012Z,14.49
2023-05-03T15:48:12.081Z,14.51
2023-05-03T15:50:39.059Z,14.01
2023-05-03T15:53:06.051Z,13.85
2023-05-03T15:55:33.444Z,14.35
2023-05-03T15:58:00.411Z,14.48
2023-05-03T16:00:27.879Z,14.22
2023-05-03T16:02:55.042Z,14.51
2023-05-03T16:05:23.206Z,14.77
2023-05-03T16:07:50.974Z,14.57
2023-05-03T16:10:18.335Z,14.45
2023-05-03T16:12:45.391Z,14.41
2023-05-03T16:15:12.676Z,15.01
2023-05-03T16:17:39.741Z,14.76
2023-05-03T16:20:10.893Z,14.40
2023-05-03T16:22:38.141Z,14.43
2023-05-03T16:25:10.757Z,13.95
2023-05-03T16:27:40.207Z,13.93
2023-05-03T16:30:08.938Z,14.27
2023-05-03T16:32:37.066Z,14.70
2023-05-03T16:35:04.635Z,14.43
2023-05-03T16:37:37.268Z,13.88
2023-05-03T16:40:13.912Z,13.63
2023-05-03T16:42:41.678Z,13.16
2023-05-03T16:45:10.853Z,13.05
2023-05-03T16:47:38.619Z,13.28
2023-05-03T16:50:09.610Z,13.60
2023-05-03T16:52:40.530Z,13.39
2023-05-03T16:55:09.425Z,13.20
2023-05-03T16:57:42.734Z,13.55
2023-05-03T17:00:11.133Z,13.78
2023-05-03T17:02:39.980Z,13.58
2023-05-03T17:05:12.778Z,13.93
2023-05-03T17:07:41.966Z,13.30
2023-05-03T17:10:09.612Z,12.82
2023-05-03T17:12:37.132Z,13.04
2023-05-03T17:15:04.665Z,13.27
2023-05-03T17:17:32.783Z,13.32
2023-05-03T17:19:59.843Z,13.62
2023-05-03T17:22:26.933Z,13.62
2023-05-03T17:24:55.333Z,13.78
2023-05-03T17:27:24.360Z,13.40
2023-05-03T17:29:51.767Z,13.06
2023-05-03T17:32:19.115Z,12.86
2023-05-03T17:34:46.353Z,13.05
2023-05-03T17:37:13.376Z,12.83
2023-05-03T17:39:40.425Z,13.37
2023-05-03T17:42:08.574Z,13.35
2023-05-03T17:44:35.699Z,13.06
2023-05-03T17:47:04.654Z,13.02
2023-05-03T17:49:34.527Z,13.12
2023-05-03T17:52:01.542Z,13.10
2023-05-03T17:54:29.514Z,13.11
2023-05-03T17:56:57.140Z,13.56
2023-05-03T17:59:24.147Z,13.13
2023-05-03T18:01:51.127Z,12.73
2023-05-03T18:04:18.153Z,12.84
2023-05-03T18:06:45.743Z,12.82
2023-05-03T18:09:13.351Z,12.85
2023-05-03T18:11:41.498Z,12.56
2023-05-03T18:14:08.545Z,12.42
2023-05-03T18:16:36.881Z,12.60
2023-05-03T18:19:04.431Z,12.44
2023-05-03T18:21:31.491Z,12.30
2023-05-03T18:23:58.592Z,12.55
2023-05-03T18:26:25.553Z,12.47
2023-05-03T18:28:53.712Z,12.36
2023-05-03T18:31:21.639Z,12.54
2023-05-03T18:33:49.118Z,12.63
2023-05-03T18:36:17.648Z,12.62
2023-05-03T18:38:47.048Z,12.45
2023-05-03T18:41:15.202Z,12.32
2023-05-03T18:43:43.639Z,12.33
2023-05-03T18:46:11.515Z,12.24
2023-05-03T18:48:38.553Z,12.34
2023-05-03T18:51:05.836Z,12.55
2023-05-03T18:53:34.486Z,12.37
2023-05-03T18:56:04.959Z,12.30
2023-05-03T18:58:32.528Z,12.20
2023-05-03T19:01:00.527Z,12.21
2023-05-03T19:03:31.622Z,12.17
2023-05-03T19:06:04.256Z,12.26
2023-05-03T19:08:31.992Z,12.33
2023-05-03T19:11:08.272Z,12.68
2023-05-03T19:13:36.129Z,12.58
2023-05-03T19:16:04.095Z,12.88
2023-05-03T19:18:32.065Z,13.07
2023-05-03T19:20:59.142Z,13.00
2023-05-03T19:23:26.225Z,13.43
2023-05-03T19:25:53.501Z,13.28
2023-05-03T19:28:20.683Z,13.16
2023-05-03T19:30:51.623Z,13.24
2023-05-03T19:33:22.098Z,13.26
2023-05-03T19:35:49.234Z,12.69
2023-05-03T19:38:16.150Z,12.43
2023-05-03T19:40:58.674Z,12.70
2023-05-03T19:43:25.926Z,12.38
2023-05-03T19:45:53.151Z,12.28
2023-05-03T19:48:20.182Z,12.39
2023-05-03T19:50:47.744Z,12.28
2023-05-03T19:53:14.824Z,12.44
2023-05-03T19:55:41.960Z,12.79
2023-05-03T19:58:08.957Z,12.84
2023-05-03T20:00:35.953Z,13.23
2023-05-03T20:03:02.986Z,13.04
2023-05-03T20:05:30.249Z,12.70
2023-05-03T20:07:57.208Z,13.23
2023-05-03T20:10:24.193Z,13.19
2023-05-03T20:12:51.199Z,13.14
2023-05-03T20:15:18.245Z,12.82
2023-05-03T20:17:45.232Z,12.50
2023-05-03T20:20:13.260Z,12.54
2023-05-03T20:22:40.891Z,12.96
2023-05-03T20:25:08.500Z,12.84
2023-05-03T20:27:35.498Z,12.74
2023-05-03T20:30:06.005Z,13.29
2023-05-03T20:32:36.371Z,13.29
2023-05-03T20:35:13.561Z,12.83
2023-05-03T20:37:40.581Z,12.75
2023-05-03T20:40:09.465Z,13.23
2023-05-03T20:42:36.693Z,13.07
2023-05-03T20:45:04.042Z,13.42
2023-05-03T20:47:31.172Z,13.57
2023-05-03T20:49:58.277Z,13.40
2023-05-03T20:52:25.424Z,13.27
2023-05-03T20:54:52.519Z,13.68
2023-05-03T20:57:19.576Z,13.69
2023-05-03T20:59:46.700Z,14.10
2023-05-03T21:02:13.726Z,14.62
2023-05-03T21:04:41.091Z,14.35
2023-05-03T21:07:08.068Z,14.21
2023-05-03T21:09:35.144Z,14.28
2023-05-03T21:12:02.368Z,14.09
2023-05-03T21:14:29.773Z,13.39
2023-05-03T21:16:56.843Z,13.28
2023-05-03T21:19:23.847Z,13.38
2023-05-03T21:21:51.028Z,13.18
2023-05-03T21:24:18.061Z,13.33
2023-05-03T21:26:45.085Z,13.28
2023-05-03T21:29:12.288Z,13.63
2023-05-03T21:31:40.311Z,13.64
2023-05-03T21:34:07.500Z,13.81
2023-05-03T21:36:34.496Z,13.74
2023-05-03T21:39:01.528Z,13.57
2023-05-03T21:41:28.578Z,13.93
2023-05-03T21:43:55.535Z,14.51
2023-05-03T21:46:22.857Z,14.52
2023-05-03T21:48:50.030Z,14.71
2023-05-03T21:51:21.953Z,14.53
2023-05-03T21:53:49.914Z,14.61
2023-05-03T21:56:16.998Z,14.43
2023-05-03T21:58:47.119Z,14.71
2023-05-03T22:01:16.849Z,14.63
2023-05-03T22:03:43.972Z,14.19
2023-05-03T22:06:11.131Z,14.15
2023-05-03T22:08:38.601Z,14.29
2023-05-03T22:11:07.193Z,13.98
2023-05-03T22:13:39.404Z,13.80
2023-05-03T22:16:12.455Z,13.96
2023-05-03T22:18:39.668Z,13.76
2023-05-03T22:21:07.429Z,14.05
2023-05-03T22:23:34.549Z,14.36
2023-05-03T22:26:01.561Z,13.97
2023-05-03T22:28:28.870Z,13.93
2023-05-03T22:30:56.719Z,13.98
2023-05-03T22:33:23.741Z,13.86
2023-05-03T22:35:50.798Z,13.95
2023-05-03T22:38:17.919Z,14.35
2023-05-03T22:40:45.038Z,13.72
2023-05-03T22:43:12.218Z,13.87
2023-05-03T22:45:39.486Z,13.33
2023-05-03T22:48:06.944Z,13.43
2023-05-03T22:50:33.924Z,13.57
2023-05-03T22:53:00.862Z,13.63
2023-05-03T22:55:28.272Z,14.01
2023-05-03T22:57:55.353Z,14.45
2023-05-03T23:00:22.656Z,14.44
2023-05-03T23:02:49.886Z,14.12
2023-05-03T23:05:17.146Z,14.10
2023-05-03T23:07:44.193Z,14.19
2023-05-03T23:10:11.524Z,13.90
2023-05-03T23:12:39.458Z,14.27
2023-05-03T23:15:07.279Z,14.65
2023-05-03T23:17:34.572Z,14.41
2023-05-03T23:20:01.667Z,13.85
2023-05-03T23:22:28.774Z,13.64
2023-05-03T23:24:55.766Z,13.35
2023-05-03T23:29:51.023Z,13.68
2023-05-03T23:32:18.445Z,14.11
2023-05-03T23:34:45.836Z,13.74
2023-05-03T23:37:12.792Z,13.51
2023-05-03T23:39:46.986Z,13.09
2023-05-03T23:42:14.228Z,13.24
2023-05-03T23:44:53.816Z,12.91
2023-05-03T23:47:21.955Z,12.45
2023-05-03T23:49:49.037Z,12.48
2023-05-03T23:52:19.172Z,12.44
2023-05-03T23:54:46.600Z,13.06
2023-05-03T23:57:13.638Z,12.80
2023-05-03T23:59:40.617Z,12.65
